Time;durP1;ratioP1;P1;durP2;ratioP2;P2;SDS_P1;SDS_P2;PMS_P1;PMS_P2;Temp;Humidity;BMP_temperature;BMP_pressure;BME280_temperature;BME280_humidity;BME280_pressure;Samples;Min_cycle;Max_cycle;Signal;HPM_P1;HPM_P2
2022/08/27 00:02:13;;;;;;;20.38;15.82;;;;;;;20.66;100.00;100136.63;4961801;28;20383;-73
2022/08/27 00:04:40;;;;;;;20.95;15.80;;;;;;;20.64;100.00;100133.16;4955783;28;20039;-73
2022/08/27 00:07:06;;;;;;;18.70;16.80;;;;;;;20.57;100.00;100135.31;4947330;28;20531;-73
2022/08/27 00:09:31;;;;;;;20.17;16.00;;;;;;;20.54;100.00;100143.50;4963212;28;20035;-73
2022/08/27 00:11:57;;;;;;;18.85;15.68;;;;;;;20.56;100.00;100137.13;4962911;28;20034;-73
2022/08/27 00:14:24;;;;;;;23.50;16.73;;;;;;;20.61;100.00;100133.34;4964275;28;20034;-73
2022/08/27 00:16:50;;;;;;;18.55;15.23;;;;;;;20.65;100.00;100132.22;4961885;28;20053;-74
2022/08/27 00:19:16;;;;;;;20.83;16.15;;;;;;;20.67;100.00;100128.53;4964750;28;20043;-74
2022/08/27 00:21:42;;;;;;;16.23;14.50;;;;;;;20.70;100.00;100124.81;4962527;28;20039;-73
2022/08/27 00:24:07;;;;;;;19.75;17.73;;;;;;;20.66;100.00;100120.53;4962976;28;20034;-73
2022/08/27 00:26:33;;;;;;;20.65;18.38;;;;;;;20.63;100.00;100118.03;4961493;28;20043;-74
2022/08/27 00:28:59;;;;;;;19.23;17.40;;;;;;;20.63;100.00;100113.53;4964239;28;20038;-73
2022/08/27 00:31:24;;;;;;;19.80;17.67;;;;;;;20.63;100.00;100128.75;4961254;28;20050;-73
2022/08/27 00:33:50;;;;;;;18.02;16.13;;;;;;;20.60;100.00;100123.56;4963972;28;20046;-73
2022/08/27 00:36:16;;;;;;;16.75;14.98;;;;;;;20.58;100.00;100124.50;4960991;28;20042;-74
2022/08/27 00:38:41;;;;;;;18.00;16.00;;;;;;;20.56;100.00;100123.72;4962848;28;20079;-73
2022/08/27 00:41:09;;;;;;;18.42;16.58;;;;;;;20.53;100.00;100121.16;4961026;28;20042;-73
2022/08/27 00:43:47;;;;;;;15.80;13.90;;;;;;;20.52;100.00;100130.19;4952156;28;20090;-73
2022/08/27 00:46:34;;;;;;;17.77;15.43;;;;;;;20.53;100.00;100126.53;4954051;28;20498;-73
2022/08/27 00:49:07;;;;;;;22.20;19.27;;;;;;;20.54;100.00;100128.31;4950068;28;20031;-73
2022/08/27 00:51:34;;;;;;;20.60;16.13;;;;;;;20.53;100.00;100123.00;4955461;28;20038;-73
2022/08/27 00:54:01;;;;;;;15.90;14.30;;;;;;;20.51;100.00;100127.56;4961011;28;20071;-73
2022/08/27 00:56:32;;;;;;;19.63;17.75;;;;;;;20.53;100.00;100126.53;4963893;28;20039;-73
2022/08/27 00:59:01;;;;;;;18.35;16.60;;;;;;;20.55;100.00;100127.34;4960654;28;20405;-73
2022/08/27 01:01:32;;;;;;;18.85;16.95;;;;;;;20.61;100.00;100127.97;4963906;28;20047;-73
2022/08/27 01:04:01;;;;;;;18.70;16.67;;;;;;;20.64;100.00;100130.47;4957269;28;20059;-73
2022/08/27 01:06:34;;;;;;;18.88;16.92;;;;;;;20.69;100.00;100129.28;4962497;28;20074;-74
2022/08/27 01:09:06;;;;;;;23.25;20.85;;;;;;;20.69;100.00;100131.97;4961467;28;20039;-73
2022/08/27 01:11:32;;;;;;;19.45;17.52;;;;;;;20.69;100.00;100133.78;4958747;28;20426;-74
2022/08/27 01:13:58;;;;;;;17.50;15.23;;;;;;;20.71;100.00;100131.88;4962804;28;20038;-73
2022/08/27 01:16:27;;;;;;;15.80;14.32;;;;;;;20.74;100.00;100137.09;4963442;28;20114;-73
2022/08/27 01:18:54;;;;;;;21.08;18.55;;;;;;;20.72;100.00;100133.59;4961113;28;20402;-74
2022/08/27 01:21:44;;;;;;;16.13;14.43;;;;;;;20.70;100.00;100130.16;4957405;28;20106;-74
2022/08/27 01:24:27;;;;;;;17.52;15.77;;;;;;;20.72;100.00;100134.50;4957578;28;20109;-74
2022/08/27 01:26:53;;;;;;;24.30;16.45;;;;;;;20.74;100.00;100139.75;4961154;28;20031;-74
2022/08/27 01:29:19;;;;;;;16.25;14.55;;;;;;;20.78;100.00;100139.53;4957223;28;20062;-73
2022/08/27 01:31:44;;;;;;;17.63;15.82;;;;;;;20.84;100.00;100146.34;4963245;28;20485;-73
2022/08/27 01:34:10;;;;;;;20.88;16.00;;;;;;;20.84;100.00;100141.00;4960354;28;20055;-74
2022/08/27 01:36:35;;;;;;;20.10;15.20;;;;;;;20.84;100.00;100146.34;4962756;28;20047;-74
2022/08/27 01:39:01;;;;;;;21.85;18.70;;;;;;;20.82;100.00;100144.72;4961709;28;20082;-74
2022/08/27 01:41:26;;;;;;;20.75;17.55;;;;;;;20.79;100.00;100143.06;4963868;28;20058;-73
2022/08/27 01:43:52;;;;;;;16.92;15.05;;;;;;;20.76;100.00;100144.09;4960590;28;20035;-73
2022/08/27 01:46:27;;;;;;;17.42;15.63;;;;;;;20.74;100.00;100145.97;4948659;28;20037;-74
2022/08/27 01:48:53;;;;;;;20.15;18.05;;;;;;;20.72;100.00;100141.66;4966728;28;20041;-73
2022/08/27 01:51:19;;;;;;;28.02;19.77;;;;;;;20.67;100.00;100133.88;4964490;28;20617;-73
2022/08/27 01:53:45;;;;;;;21.88;18.50;;;;;;;20.61;100.00;100142.25;4967588;28;20122;-73
2022/08/27 01:56:10;;;;;;;19.33;14.65;;;;;;;20.61;100.00;100138.69;4960941;28;20125;-73
2022/08/27 01:58:37;;;;;;;22.83;18.38;;;;;;;20.55;100.00;100140.75;4966435;28;20058;-73
2022/08/27 02:01:10;;;;;;;20.95;16.67;;;;;;;20.54;100.00;100138.16;4965969;28;20039;-73
2022/08/27 02:03:36;;;;;;;17.70;15.77;;;;;;;20.58;100.00;100129.00;4964051;28;20097;-73
2022/08/27 02:06:05;;;;;;;17.85;15.95;;;;;;;20.60;100.00;100131.63;4965270;28;20520;-74
2022/08/27 02:08:30;;;;;;;18.00;16.17;;;;;;;20.62;100.00;100121.66;4965422;28;20504;-73
2022/08/27 02:10:56;;;;;;;20.33;18.08;;;;;;;20.60;100.00;100123.56;4948195;28;20030;-73
2022/08/27 02:13:21;;;;;;;19.70;17.55;;;;;;;20.52;100.00;100119.44;4966268;28;20390;-74
2022/08/27 02:15:46;;;;;;;26.02;20.05;;;;;;;20.45;100.00;100123.41;4964445;28;20398;-74
2022/08/27 02:18:13;;;;;;;23.25;20.77;;;;;;;20.46;100.00;100124.25;4967150;28;20038;-73
2022/08/27 02:20:40;;;;;;;27.15;21.58;;;;;;;20.45;100.00;100125.22;4964563;28;20035;-73
2022/08/27 02:23:06;;;;;;;18.70;16.48;;;;;;;20.43;100.00;100119.06;4965552;28;20042;-73
2022/08/27 02:25:31;;;;;;;21.15;18.92;;;;;;;20.41;100.00;100126.31;4965756;28;20043;-74
2022/08/27 02:27:58;;;;;;;15.98;14.35;;;;;;;20.39;100.00;100115.69;4964500;28;20031;-73
2022/08/27 02:30:25;;;;;;;24.15;18.02;;;;;;;20.41;100.00;100115.59;4966944;28;20409;-74
2022/08/27 02:32:51;;;;;;;20.17;17.75;;;;;;;20.41;100.00;100111.13;4963314;28;20047;-73
2022/08/27 02:35:18;;;;;;;19.42;17.42;;;;;;;20.42;100.00;100123.56;4960797;28;20457;-74
2022/08/27 02:37:44;;;;;;;21.50;17.40;;;;;;;20.45;100.00;100119.84;4965367;28;20456;-73
2022/08/27 02:40:14;;;;;;;22.15;19.27;;;;;;;20.41;100.00;100116.50;4962699;28;20485;-73
2022/08/27 02:42:40;;;;;;;23.63;19.77;;;;;;;20.39;100.00;100121.06;4956282;28;20494;-73
2022/08/27 02:45:06;;;;;;;23.25;20.83;;;;;;;20.38;100.00;100115.75;4933573;28;20130;-74
2022/08/27 02:47:33;;;;;;;32.60;26.17;;;;;;;20.31;100.00;100115.25;4965399;28;20046;-74
2022/08/27 02:49:58;;;;;;;29.88;22.98;;;;;;;20.32;100.00;100116.97;4965514;28;20516;-73
2022/08/27 02:52:26;;;;;;;23.52;19.17;;;;;;;20.32;100.00;100111.59;4963690;28;20121;-74
2022/08/27 02:54:52;;;;;;;27.02;22.60;;;;;;;20.29;100.00;100114.44;4963050;28;20063;-74
2022/08/27 02:57:18;;;;;;;22.75;20.35;;;;;;;20.27;100.00;100116.34;4965779;28;20505;-74
2022/08/27 02:59:43;;;;;;;28.38;23.60;;;;;;;20.19;100.00;100115.88;4964050;28;20070;-73
2022/08/27 03:02:10;;;;;;;32.17;25.83;;;;;;;20.16;100.00;100113.38;4964703;28;20089;-74
2022/08/27 03:04:36;;;;;;;24.08;19.83;;;;;;;20.19;100.00;100113.19;4962461;28;20418;-74
2022/08/27 03:07:01;;;;;;;27.35;21.33;;;;;;;20.18;100.00;100106.97;4965951;28;20034;-74
2022/08/27 03:09:27;;;;;;;25.88;23.20;;;;;;;20.17;100.00;100107.91;4945790;28;20150;-74
2022/08/27 03:11:52;;;;;;;29.98;25.55;;;;;;;20.12;100.00;100109.97;4965744;28;20035;-74
2022/08/27 03:14:18;;;;;;;31.73;26.48;;;;;;;20.08;100.00;100103.06;4963749;28;20035;-74
2022/08/27 03:16:43;;;;;;;24.58;22.10;;;;;;;20.13;100.00;100106.34;4965013;28;20070;-74
2022/08/27 03:19:10;;;;;;;24.58;22.17;;;;;;;20.13;100.00;100107.22;4965084;28;20077;-74
2022/08/27 03:21:35;;;;;;;37.22;29.60;;;;;;;20.06;100.00;100105.81;4963174;28;20035;-74
2022/08/27 03:24:03;;;;;;;32.90;27.80;;;;;;;20.03;100.00;100110.47;4948652;28;20046;-74
2022/08/27 03:26:30;;;;;;;40.17;29.33;;;;;;;20.00;100.00;100113.31;4963164;28;20070;-74
2022/08/27 03:28:57;;;;;;;29.58;26.58;;;;;;;19.96;100.00;100109.03;4964800;28;20042;-74
2022/08/27 03:31:27;;;;;;;35.55;28.00;;;;;;;19.98;100.00;100105.34;4964148;28;20050;-74
2022/08/27 03:33:55;;;;;;;31.65;26.63;;;;;;;20.02;100.00;100109.59;4962690;28;20502;-74
2022/08/27 03:36:20;;;;;;;32.03;26.35;;;;;;;20.04;100.00;100109.50;4956946;28;20031;-74
2022/08/27 03:38:46;;;;;;;36.00;29.52;;;;;;;20.01;100.00;100115.03;4958190;28;20635;-74
2022/08/27 03:41:12;;;;;;;33.38;28.23;;;;;;;20.04;100.00;100110.41;4963631;28;20411;-74
2022/08/27 03:43:38;;;;;;;42.38;33.30;;;;;;;20.01;100.00;100101.63;4946200;28;20046;-74
2022/08/27 03:46:03;;;;;;;41.17;33.70;;;;;;;20.03;100.00;100107.78;4959256;28;20043;-74
2022/08/27 03:48:32;;;;;;;44.95;32.05;;;;;;;20.06;100.00;100115.66;4965316;28;20091;-74
2022/08/27 03:51:03;;;;;;;43.33;33.60;;;;;;;20.05;100.00;100114.78;4962849;28;20545;-74
2022/08/27 03:53:28;;;;;;;33.00;29.23;;;;;;;20.08;100.00;100119.13;4946906;28;20085;-74
2022/08/27 03:55:53;;;;;;;33.70;29.50;;;;;;;20.08;100.00;100120.00;4959296;28;20035;-74
2022/08/27 03:58:19;;;;;;;39.13;33.08;;;;;;;20.04;100.00;100123.78;4965175;28;20043;-74
2022/08/27 04:00:44;;;;;;;39.00;32.55;;;;;;;20.10;100.00;100125.28;4944743;28;20030;-74
2022/08/27 04:03:12;;;;;;;32.83;29.08;;;;;;;20.22;100.00;100127.28;4947527;28;20031;-74
2022/08/27 04:05:38;;;;;;;44.60;33.47;;;;;;;20.28;100.00;100126.13;4962515;28;20038;-74
2022/08/27 04:08:04;;;;;;;40.08;32.15;;;;;;;20.34;100.00;100129.34;4963860;28;20182;-74
2022/08/27 04:10:29;;;;;;;36.50;28.20;;;;;;;20.40;100.00;100119.25;4961783;28;20059;-74
2022/08/27 04:12:54;;;;;;;53.10;37.80;;;;;;;20.33;100.00;100118.69;4964688;28;20054;-74
2022/08/27 04:15:20;;;;;;;36.17;30.92;;;;;;;20.24;100.00;100121.88;4961816;28;20045;-75
2022/08/27 04:17:45;;;;;;;40.90;32.95;;;;;;;20.14;100.00;100116.13;4957574;28;20035;-75
2022/08/27 04:20:11;;;;;;;49.25;35.88;;;;;;;20.10;100.00;100120.78;4962609;28;20494;-74
2022/08/27 04:22:38;;;;;;;45.30;36.55;;;;;;;20.02;100.00;100119.44;4962322;28;20039;-74
2022/08/27 04:25:04;;;;;;;42.95;33.72;;;;;;;20.00;100.00;100119.53;4962616;28;20158;-74
2022/08/27 04:27:30;;;;;;;47.05;35.63;;;;;;;19.91;100.00;100123.56;4964658;28;20039;-74
2022/08/27 04:29:57;;;;;;;37.80;32.28;;;;;;;19.94;100.00;100122.53;4957735;28;20494;-74
2022/08/27 04:32:24;;;;;;;41.10;32.03;;;;;;;19.91;100.00;100130.69;4963866;28;20450;-74
2022/08/27 04:34:53;;;;;;;49.42;37.40;;;;;;;19.93;100.00;100126.13;4960759;28;20443;-74
2022/08/27 04:37:19;;;;;;;42.67;32.08;;;;;;;19.98;100.00;100128.59;4944974;28;20046;-75
2022/08/27 04:39:44;;;;;;;44.58;33.28;;;;;;;19.94;100.00;100133.25;4964653;28;20449;-74
2022/08/27 04:42:09;;;;;;;34.90;29.30;;;;;;;20.00;100.00;100124.03;4957588;28;20086;-75
2022/08/27 04:44:35;;;;;;;51.15;36.70;;;;;;;19.97;100.00;100127.72;4942727;28;20054;-75
2022/08/27 04:47:02;;;;;;;55.40;37.58;;;;;;;19.86;100.00;100130.94;4962556;28;20035;-74
2022/08/27 04:49:29;;;;;;;54.92;36.50;;;;;;;19.83;100.00;100125.75;4944485;28;20034;-74
2022/08/27 04:51:54;;;;;;;55.85;37.92;;;;;;;19.77;100.00;100127.88;4955668;28;20494;-74
2022/08/27 04:54:21;;;;;;;51.20;35.60;;;;;;;19.73;100.00;100127.16;4964308;28;20030;-74
2022/08/27 04:56:46;;;;;;;58.85;36.80;;;;;;;19.75;100.00;100127.06;4958334;28;20037;-73
2022/08/27 04:59:12;;;;;;;53.80;38.53;;;;;;;19.76;100.00;100128.81;4959865;28;20050;-74
2022/08/27 05:01:39;;;;;;;68.65;43.85;;;;;;;19.80;100.00;100125.03;4962119;28;20703;-73
2022/08/27 05:04:05;;;;;;;69.38;41.10;;;;;;;19.80;100.00;100125.88;4960305;28;20519;-73
2022/08/27 05:06:31;;;;;;;44.63;32.05;;;;;;;19.80;100.00;100130.38;4959434;28;20043;-74
2022/08/27 05:08:56;;;;;;;45.22;33.13;;;;;;;19.75;100.00;100129.75;4964345;28;20121;-73
2022/08/27 05:11:25;;;;;;;57.83;39.20;;;;;;;19.78;100.00;100133.16;4960700;28;20533;-74
2022/08/27 05:13:52;;;;;;;47.15;33.60;;;;;;;19.85;100.00;100131.00;4962599;28;20042;-73
2022/08/27 05:16:21;;;;;;;40.92;32.05;;;;;;;19.86;100.00;100141.66;4963101;28;20043;-73
2022/08/27 05:18:49;;;;;;;42.65;32.70;;;;;;;19.84;100.00;100132.84;4960982;28;20035;-74
2022/08/27 05:21:26;;;;;;;47.22;34.00;;;;;;;19.98;100.00;100128.59;4966135;28;20066;-73
2022/08/27 05:23:53;;;;;;;51.17;37.03;;;;;;;20.13;100.00;100128.66;4967415;28;20440;-74
2022/08/27 05:26:19;;;;;;;43.65;34.45;;;;;;;20.22;100.00;100126.44;4965000;28;20521;-74
2022/08/27 05:28:44;;;;;;;55.60;37.55;;;;;;;20.26;100.00;100131.56;4961310;28;20067;-74
2022/08/27 05:31:12;;;;;;;45.90;35.05;;;;;;;20.39;100.00;100133.59;4967102;28;20051;-74
2022/08/27 05:33:39;;;;;;;55.28;37.92;;;;;;;20.44;100.00;100129.72;4964625;28;20042;-74
2022/08/27 05:36:06;;;;;;;47.10;34.92;;;;;;;20.51;100.00;100132.91;4964108;28;20041;-74
2022/08/27 05:38:32;;;;;;;41.05;32.72;;;;;;;20.48;100.00;100131.28;4963081;28;20110;-74
2022/08/27 05:41:13;;;;;;;42.83;33.05;;;;;;;20.46;100.00;100126.94;4955385;28;20031;-74
2022/08/27 05:43:40;;;;;;;49.45;36.47;;;;;;;20.46;100.00;100127.84;4961823;28;20049;-74
2022/08/27 05:46:12;;;;;;;45.75;34.85;;;;;;;20.50;100.00;100121.34;4964336;28;20051;-74
2022/08/27 05:48:40;;;;;;;37.30;32.10;;;;;;;20.40;100.00;100125.47;4965794;28;20048;-74
2022/08/27 05:51:13;;;;;;;34.03;30.10;;;;;;;20.40;100.00;100129.97;4966992;28;20254;-74
2022/08/27 05:53:39;;;;;;;44.60;35.03;;;;;;;20.39;100.00;100123.75;4964737;28;20134;-74
2022/08/27 05:56:09;;;;;;;44.92;35.00;;;;;;;20.40;100.00;100122.78;4967185;28;20038;-76
2022/08/27 06:01:22;;;;;;;39.53;30.83;;;;;;;20.52;100.00;100130.19;4957888;28;20023;-74
2022/08/27 06:03:48;;;;;;;41.08;30.95;;;;;;;20.53;100.00;100133.72;4965168;28;20031;-74
2022/08/27 06:06:13;;;;;;;48.50;36.75;;;;;;;20.54;100.00;100136.34;4962935;28;20456;-74
2022/08/27 06:08:39;;;;;;;32.72;28.48;;;;;;;20.48;100.00;100139.31;4960545;28;20047;-76
2022/08/27 06:11:06;;;;;;;41.63;32.60;;;;;;;20.44;100.00;100147.63;4962791;28;20035;-74
2022/08/27 06:13:33;;;;;;;31.13;27.73;;;;;;;20.47;100.00;100148.31;4966307;28;20446;-74
2022/08/27 06:16:07;;;;;;;37.28;30.67;;;;;;;20.48;100.00;100150.03;4965626;28;20066;-74
2022/08/27 06:18:39;;;;;;;39.85;32.03;;;;;;;20.46;100.00;100153.75;4963994;28;20039;-75
2022/08/27 06:21:05;;;;;;;;;;;;;;;20.49;100.00;100150.94;4966448;28;20065;-75
2022/08/27 06:23:30;;;;;;;34.20;27.52;;;;;;;20.52;100.00;100156.97;4965518;28;19945;-74
2022/08/27 06:25:57;;;;;;;38.78;29.83;;;;;;;20.50;100.00;100163.38;4964948;28;20067;-74
2022/08/27 06:28:25;;;;;;;34.15;27.45;;;;;;;20.46;100.00;100157.31;4967021;28;20045;-74
2022/08/27 06:30:50;;;;;;;35.63;27.05;;;;;;;20.48;100.00;100159.91;4960327;28;20039;-74
2022/08/27 06:33:16;;;;;;;33.13;27.77;;;;;;;20.40;100.00;100162.13;4965059;28;20038;-74
2022/08/27 06:35:41;;;;;;;35.97;30.65;;;;;;;20.27;100.00;100161.91;4963189;28;20146;-74
2022/08/27 06:38:07;;;;;;;34.28;28.60;;;;;;;20.33;100.00;100159.78;4964985;28;20042;-74
2022/08/27 06:40:33;;;;;;;38.78;31.27;;;;;;;20.30;100.00;100164.41;4966286;28;20470;-74
2022/08/27 06:42:59;;;;;;;32.63;29.13;;;;;;;20.30;100.00;100153.69;4963061;28;20039;-74
2022/08/27 06:45:25;;;;;;;34.10;27.55;;;;;;;20.32;100.00;100166.06;4959323;28;20138;-74
2022/08/27 06:47:50;;;;;;;31.42;27.00;;;;;;;20.44;100.00;100161.88;4964034;28;20108;-74
2022/08/27 06:50:16;;;;;;;32.20;28.63;;;;;;;20.55;100.00;100162.19;4960134;28;20097;-74
2022/08/27 06:52:41;;;;;;;33.80;27.95;;;;;;;20.52;100.00;100154.31;4963107;28;20117;-74
2022/08/27 06:55:09;;;;;;;35.53;28.38;;;;;;;20.49;100.00;100157.16;4946340;28;20023;-74
2022/08/27 06:57:34;;;;;;;31.42;27.70;;;;;;;20.65;100.00;100164.41;4959484;28;20039;-75
2022/08/27 07:00:00;;;;;;;38.50;31.88;;;;;;;20.71;100.00;100169.44;4952935;28;20425;-75
2022/08/27 07:02:25;;;;;;;30.63;26.73;;;;;;;20.85;100.00;100169.53;4942212;28;20047;-75
2022/08/27 07:04:52;;;;;;;31.63;27.75;;;;;;;20.84;100.00;100180.38;4949850;28;20035;-75
2022/08/27 07:07:18;;;;;;;33.30;25.67;;;;;;;20.74;100.00;100171.94;4960080;28;20945;-75
2022/08/27 07:09:44;;;;;;;27.23;24.15;;;;;;;20.69;100.00;100174.00;4944626;28;20081;-75
2022/08/27 07:12:09;;;;;;;29.45;23.48;;;;;;;20.69;100.00;100172.19;4962863;28;20516;-75
2022/08/27 07:14:35;;;;;;;38.08;25.33;;;;;;;20.62;100.00;100172.59;4965735;28;20035;-75
2022/08/27 07:17:00;;;;;;;34.60;26.52;;;;;;;20.62;100.00;100175.28;4956707;28;20512;-75
2022/08/27 07:19:27;;;;;;;34.08;24.42;;;;;;;20.71;100.00;100172.97;4959583;28;20036;-75
2022/08/27 07:21:52;;;;;;;28.83;24.70;;;;;;;20.71;100.00;100177.47;4963696;28;20046;-74
2022/08/27 07:24:18;;;;;;;41.38;27.77;;;;;;;20.74;100.00;100183.53;4963844;28;20042;-75
2022/08/27 07:26:43;;;;;;;36.47;27.27;;;;;;;20.69;100.00;100172.19;4959162;28;20039;-75
2022/08/27 07:29:13;;;;;;;38.30;27.42;;;;;;;20.64;100.00;100178.75;4962846;28;20094;-75
2022/08/27 07:31:39;;;;;;;40.13;26.40;;;;;;;20.73;100.00;100186.31;4966649;28;20573;-75
2022/08/27 07:34:05;;;;;;;38.60;27.77;;;;;;;20.79;100.00;100180.59;4962184;28;20130;-76
2022/08/27 07:36:32;;;;;;;36.00;26.50;;;;;;;20.78;100.00;100185.13;4962229;28;20039;-76
2022/08/27 07:38:58;;;;;;;41.53;27.00;;;;;;;20.69;100.00;100185.59;4965761;28;20089;-76
2022/08/27 07:41:24;;;;;;;46.22;30.25;;;;;;;20.64;100.00;100184.97;4962422;28;20438;-75
2022/08/27 07:46:33;;;;;;;47.95;29.30;;;;;;;20.62;100.00;100183.31;4959009;28;20039;-76
2022/08/27 07:48:58;;;;;;;37.58;28.75;;;;;;;20.62;100.00;100188.69;4964968;28;20093;-76
2022/08/27 07:51:27;;;;;;;47.38;30.98;;;;;;;20.51;100.00;100187.44;4958076;28;20047;-75
2022/08/27 07:53:53;;;;;;;38.75;27.25;;;;;;;20.51;100.00;100192.78;4956938;28;20066;-76
2022/08/27 07:56:19;;;;;;;45.15;32.90;;;;;;;20.48;100.00;100192.06;4956681;28;20478;-76
2022/08/27 07:58:45;;;;;;;40.53;28.80;;;;;;;20.39;100.00;100193.44;4938779;28;20118;-76
2022/08/27 08:01:12;;;;;;;41.08;29.65;;;;;;;20.37;100.00;100200.66;4936204;28;20106;-76
2022/08/27 08:03:39;;;;;;;41.97;28.17;;;;;;;20.38;100.00;100197.03;4955774;28;20110;-76
2022/08/27 08:06:07;;;;;;;45.15;30.40;;;;;;;20.40;100.00;100194.28;4953884;28;20038;-76
2022/08/27 08:08:35;;;;;;;38.58;28.83;;;;;;;20.42;100.00;100198.63;4955130;28;20046;-76
2022/08/27 08:11:02;;;;;;;43.88;31.45;;;;;;;20.45;100.00;100195.78;4959988;28;20039;-75
2022/08/27 08:13:27;;;;;;;52.13;32.63;;;;;;;20.46;100.00;100197.53;4952426;28;20038;-76
2022/08/27 08:15:52;;;;;;;46.60;31.48;;;;;;;20.58;100.00;100196.88;4962280;28;20042;-76
2022/08/27 08:18:18;;;;;;;46.85;34.22;;;;;;;20.58;100.00;100198.72;4963727;28;20039;-76
2022/08/27 08:20:43;;;;;;;41.33;32.13;;;;;;;20.62;100.00;100199.41;4963184;28;20029;-76
2022/08/27 08:23:09;;;;;;;51.40;34.75;;;;;;;20.69;100.00;100195.47;4961787;28;20505;-79
2022/08/27 08:25:34;;;;;;;38.40;31.65;;;;;;;20.79;100.00;100202.06;4941673;28;20406;-75
2022/08/27 08:28:00;;;;;;;42.25;30.33;;;;;;;20.76;100.00;100191.50;4960472;28;20043;-76
2022/08/27 08:30:26;;;;;;;43.58;32.38;;;;;;;20.75;100.00;100206.75;4943853;28;20126;-77
2022/08/27 08:32:52;;;;;;;40.13;31.10;;;;;;;20.59;100.00;100211.16;4929925;28;20031;-77
2022/08/27 08:35:18;;;;;;;34.17;27.45;;;;;;;20.53;100.00;100206.94;4943937;28;20039;-76
2022/08/27 08:37:44;;;;;;;37.33;29.35;;;;;;;20.50;100.00;100212.47;4962985;28;20114;-76
2022/08/27 08:40:26;;;;;;;35.42;28.48;;;;;;;20.64;100.00;100205.56;4939900;28;20027;-76
2022/08/27 08:42:54;;;;;;;33.80;27.17;;;;;;;20.90;100.00;100205.03;4943601;28;20030;-77
2022/08/27 08:45:33;;;;;;;32.95;28.92;;;;;;;21.30;100.00;100208.22;4960784;28;20027;-76
2022/08/27 08:48:09;;;;;;;32.03;27.92;;;;;;;21.69;100.00;100198.00;4963789;28;20089;-77
2022/08/27 08:51:13;;;;;;;33.90;30.40;;;;;;;21.98;100.00;100199.00;4958705;28;20049;-76
2022/08/27 08:53:51;;;;;;;33.88;27.20;;;;;;;;;;4951498;28;20075;-77
2022/08/27 08:56:24;;;;;;;35.60;28.52;;;;;;;22.01;100.00;100204.22;4962495;28;20110;-77
2022/08/27 08:59:01;;;;;;;32.25;26.55;;;;;;;21.86;100.00;100212.19;4961990;28;20038;-77
2022/08/27 09:01:27;;;;;;;35.90;26.63;;;;;;;21.70;100.00;100214.03;4961885;28;20038;-77
2022/08/27 09:03:58;;;;;;;36.13;32.35;;;;;;;21.40;100.00;100205.91;4963078;28;20509;-77
2022/08/27 09:06:41;;;;;;;34.15;27.80;;;;;;;21.29;100.00;100211.84;4961911;28;20043;-77
2022/08/27 09:09:24;;;;;;;34.80;27.70;;;;;;;21.53;100.00;100211.44;4958466;28;20121;-77
2022/08/27 09:12:02;;;;;;;30.33;25.60;;;;;;;21.69;100.00;100208.75;4959870;28;20035;-77
2022/08/27 09:14:41;;;;;;;30.65;27.35;;;;;;;21.77;100.00;100212.75;4961035;28;20035;-76
2022/08/27 09:17:07;;;;;;;30.20;27.02;;;;;;;21.54;100.00;100219.44;4957695;28;20035;-77
2022/08/27 09:19:33;;;;;;;28.77;25.58;;;;;;;21.39;100.00;100221.16;4959053;28;20090;-78
2022/08/27 09:22:09;;;;;;;29.02;25.20;;;;;;;21.41;100.00;100224.63;4962038;28;20035;-78
2022/08/27 09:24:47;;;;;;;32.47;26.55;;;;;;;21.37;100.00;100222.16;4960791;28;20047;-76
2022/08/27 09:27:13;;;;;;;29.80;26.10;;;;;;;21.42;100.00;100212.91;4944992;28;20039;-78
2022/08/27 09:29:53;;;;;;;28.75;25.70;;;;;;;21.57;100.00;100221.06;4944703;28;20062;-78
2022/08/27 09:32:24;;;;;;;29.15;26.55;;;;;;;21.52;100.00;100212.41;4966263;28;20509;-78
2022/08/27 09:34:50;;;;;;;29.60;26.45;;;;;;;21.49;100.00;100217.97;4958128;28;20063;-78
2022/08/27 09:37:21;;;;;;;27.35;24.55;;;;;;;21.49;100.00;100213.44;4965419;28;20502;-77
2022/08/27 09:39:50;;;;;;;26.45;23.90;;;;;;;21.61;100.00;100209.19;4965623;28;20043;-78
2022/08/27 09:42:32;;;;;;;27.98;25.10;;;;;;;21.71;100.00;100213.06;4946654;28;20035;-78
2022/08/27 09:44:58;;;;;;;;;;;;;;;21.74;100.00;100207.53;4947643;29;20039;-77
2022/08/27 09:47:24;;;;;;;24.25;21.90;;;;;;;22.02;100.00;100208.63;4967181;28;19985;-78
2022/08/27 09:50:01;;;;;;;24.77;22.10;;;;;;;22.27;98.38;100217.00;4928929;28;20031;-78
2022/08/27 09:52:32;;;;;;;24.25;21.58;;;;;;;22.44;98.41;100213.28;4947343;29;20039;-78
2022/08/27 09:54:58;;;;;;;21.50;19.45;;;;;;;22.47;95.69;100210.41;4960809;28;20038;-77
2022/08/27 09:57:34;;;;;;;21.13;19.00;;;;;;;22.45;95.58;100215.03;4947283;28;20111;-78
2022/08/27 10:00:00;;;;;;;24.15;21.95;;;;;;;22.35;94.73;100216.53;4925773;29;20042;-76
2022/08/27 10:02:27;;;;;;;21.17;19.15;;;;;;;22.27;96.27;100222.38;4955760;28;20035;-76
2022/08/27 10:05:00;;;;;;;21.00;18.95;;;;;;;22.39;96.58;100222.59;4955343;28;20035;-76
2022/08/27 10:07:51;;;;;;;20.50;18.52;;;;;;;22.42;97.50;100217.03;4955621;28;20043;-76
2022/08/27 10:10:40;;;;;;;19.92;18.02;;;;;;;22.52;97.14;100221.75;4965317;28;20042;-76
2022/08/27 10:13:27;;;;;;;20.23;18.33;;;;;;;22.68;97.35;100220.81;4965793;28;20039;-78
2022/08/27 10:16:30;;;;;;;19.52;17.63;;;;;;;22.96;94.78;100220.88;4964131;28;20031;-76
2022/08/27 10:19:17;;;;;;;19.27;17.52;;;;;;;23.18;93.38;100220.38;4947855;28;20043;-76
2022/08/27 10:21:55;;;;;;;19.85;18.00;;;;;;;23.02;91.73;100216.06;4963843;28;20035;-76
2022/08/27 10:24:52;;;;;;;19.52;17.67;;;;;;;22.73;92.11;100226.78;4965286;28;20054;-76
2022/08/27 10:27:28;;;;;;;17.85;16.15;;;;;;;22.51;94.22;100213.78;4931746;28;20031;-76
2022/08/27 10:30:08;;;;;;;18.65;16.63;;;;;;;22.44;93.63;100224.03;4956712;28;20513;-76
2022/08/27 10:32:51;;;;;;;20.15;18.55;;;;;;;22.52;93.30;100227.13;4954495;28;20046;-76
2022/08/27 10:35:33;;;;;;;17.90;16.40;;;;;;;22.45;93.65;100224.91;4955161;28;20144;-77
2022/08/27 10:38:20;;;;;;;;;;;;;;;22.49;93.78;100221.06;4955706;28;20508;-77
2022/08/27 10:41:07;;;;;;;17.48;15.77;;;;;;;22.42;94.12;100235.84;4948413;28;20156;-77
2022/08/27 10:43:49;;;;;;;19.17;17.55;;;;;;;22.35;94.43;100234.47;4954733;28;20050;-77
2022/08/27 10:46:20;;;;;;;18.23;16.38;;;;;;;22.21;95.46;100232.63;4954553;28;20516;-77
2022/08/27 10:49:00;;;;;;;16.45;14.85;;;;;;;22.03;97.33;100230.03;4954952;28;20036;-76
2022/08/27 10:51:41;;;;;;;16.67;15.05;;;;;;;22.03;97.25;100235.41;4932855;28;20102;-76
2022/08/27 10:54:21;;;;;;;18.83;16.90;;;;;;;22.06;98.34;100245.09;4953006;28;20409;-77
2022/08/27 10:56:59;;;;;;;22.20;20.27;;;;;;;21.95;96.77;100242.16;4959971;28;20107;-77
2022/08/27 10:59:46;;;;;;;19.65;17.80;;;;;;;21.70;100.00;100242.72;4951417;28;20466;-76
2022/08/27 11:02:29;;;;;;;18.55;16.85;;;;;;;21.63;100.00;100244.88;4959321;28;20074;-76
2022/08/27 11:05:08;;;;;;;22.50;18.85;;;;;;;21.59;100.00;100248.72;4953378;28;20054;-76
2022/08/27 11:07:39;;;;;;;20.58;18.52;;;;;;;21.70;100.00;100238.22;4956465;28;20039;-77
2022/08/27 11:10:12;;;;;;;18.90;16.90;;;;;;;21.77;99.56;100242.28;4950674;28;20049;-76
2022/08/27 11:12:43;;;;;;;18.70;16.83;;;;;;;21.70;99.56;100248.97;4946820;28;20046;-76
2022/08/27 11:15:17;;;;;;;19.08;16.42;;;;;;;21.75;100.00;100244.19;4956476;28;20074;-76
2022/08/27 11:18:07;;;;;;;18.77;16.88;;;;;;;21.83;99.87;100244.63;4959653;28;20137;-77
2022/08/27 11:20:46;;;;;;;20.73;17.35;;;;;;;21.89;100.00;100238.88;4956457;28;20042;-77